sensor_id;sensor_type;location;lat;lon;timestamp;P1;durP1;ratioP1;P2;durP2;ratioP2
42978;SDS011;28616;44.746;19.678;2023-03-11T00:00:10;89.10;;;49.15;;
42978;SDS011;28616;44.746;19.678;2023-03-11T00:02:39;90.63;;;44.78;;
42978;SDS011;28616;44.746;19.678;2023-03-11T00:05:05;91.43;;;48.60;;
42978;SDS011;28616;44.746;19.678;2023-03-11T00:07:32;91.63;;;49.22;;
42978;SDS011;28616;44.746;19.678;2023-03-11T00:09:58;86.65;;;41.33;;
42978;SDS011;28616;44.746;19.678;2023-03-11T00:12:24;90.85;;;45.75;;
42978;SDS011;28616;44.746;19.678;2023-03-11T00:14:49;91.82;;;44.38;;
42978;SDS011;28616;44.746;19.678;2023-03-11T00:17:15;91.43;;;43.33;;
42978;SDS011;28616;44.746;19.678;2023-03-11T00:19:41;84.05;;;38.70;;
42978;SDS011;28616;44.746;19.678;2023-03-11T00:22:06;53.45;;;28.35;;
42978;SDS011;28616;44.746;19.678;2023-03-11T00:24:32;47.30;;;23.45;;
42978;SDS011;28616;44.746;19.678;2023-03-11T00:26:58;39.22;;;19.60;;
42978;SDS011;28616;44.746;19.678;2023-03-11T00:29:24;44.58;;;22.95;;
42978;SDS011;28616;44.746;19.678;2023-03-11T00:31:50;54.17;;;24.33;;
42978;SDS011;28616;44.746;19.678;2023-03-11T00:34:16;39.05;;;18.58;;
42978;SDS011;28616;44.746;19.678;2023-03-11T00:36:41;57.67;;;25.20;;
42978;SDS011;28616;44.746;19.678;2023-03-11T00:39:07;93.55;;;36.05;;
42978;SDS011;28616;44.746;19.678;2023-03-11T00:41:35;49.90;;;22.35;;
42978;SDS011;28616;44.746;19.678;2023-03-11T00:44:01;61.30;;;26.80;;
42978;SDS011;28616;44.746;19.678;2023-03-11T00:46:27;88.82;;;35.38;;
42978;SDS011;28616;44.746;19.678;2023-03-11T00:48:55;58.90;;;27.10;;
42978;SDS011;28616;44.746;19.678;2023-03-11T00:51:21;58.30;;;25.10;;
42978;SDS011;28616;44.746;19.678;2023-03-11T00:53:46;47.13;;;20.50;;
42978;SDS011;28616;44.746;19.678;2023-03-11T00:56:13;49.67;;;21.42;;
42978;SDS011;28616;44.746;19.678;2023-03-11T00:58:40;65.95;;;29.42;;
42978;SDS011;28616;44.746;19.678;2023-03-11T01:01:08;51.60;;;23.17;;
42978;SDS011;28616;44.746;19.678;2023-03-11T01:03:39;46.47;;;22.03;;
42978;SDS011;28616;44.746;19.678;2023-03-11T01:06:05;68.32;;;26.02;;
42978;SDS011;28616;44.746;19.678;2023-03-11T01:08:31;87.05;;;34.35;;
42978;SDS011;28616;44.746;19.678;2023-03-11T01:10:57;72.35;;;28.42;;
42978;SDS011;28616;44.746;19.678;2023-03-11T01:13:24;45.92;;;20.88;;
42978;SDS011;28616;44.746;19.678;2023-03-11T01:15:50;33.53;;;14.52;;
42978;SDS011;28616;44.746;19.678;2023-03-11T01:18:16;52.92;;;22.63;;
42978;SDS011;28616;44.746;19.678;2023-03-11T01:20:42;40.25;;;16.63;;
42978;SDS011;28616;44.746;19.678;2023-03-11T01:23:08;57.45;;;23.30;;
42978;SDS011;28616;44.746;19.678;2023-03-11T01:25:34;50.50;;;21.17;;
42978;SDS011;28616;44.746;19.678;2023-03-11T01:28:00;58.38;;;22.80;;
42978;SDS011;28616;44.746;19.678;2023-03-11T01:30:27;43.53;;;17.83;;
42978;SDS011;28616;44.746;19.678;2023-03-11T01:32:53;79.50;;;33.35;;
42978;SDS011;28616;44.746;19.678;2023-03-11T01:35:21;88.50;;;36.80;;
42978;SDS011;28616;44.746;19.678;2023-03-11T01:37:48;53.67;;;24.17;;
42978;SDS011;28616;44.746;19.678;2023-03-11T01:40:23;72.18;;;32.25;;
42978;SDS011;28616;44.746;19.678;2023-03-11T01:42:49;52.17;;;20.92;;
42978;SDS011;28616;44.746;19.678;2023-03-11T01:47:59;33.85;;;13.40;;
42978;SDS011;28616;44.746;19.678;2023-03-11T01:50:26;36.10;;;14.85;;
42978;SDS011;28616;44.746;19.678;2023-03-11T01:52:58;39.85;;;17.67;;
42978;SDS011;28616;44.746;19.678;2023-03-11T01:55:24;61.28;;;25.52;;
42978;SDS011;28616;44.746;19.678;2023-03-11T01:57:52;59.17;;;23.02;;
42978;SDS011;28616;44.746;19.678;2023-03-11T02:00:18;119.85;;;43.20;;
42978;SDS011;28616;44.746;19.678;2023-03-11T02:02:45;62.03;;;30.77;;
42978;SDS011;28616;44.746;19.678;2023-03-11T02:05:15;33.47;;;15.18;;
42978;SDS011;28616;44.746;19.678;2023-03-11T02:07:43;22.95;;;13.10;;
42978;SDS011;28616;44.746;19.678;2023-03-11T02:10:10;28.13;;;12.30;;
42978;SDS011;28616;44.746;19.678;2023-03-11T02:12:37;26.08;;;14.20;;
42978;SDS011;28616;44.746;19.678;2023-03-11T02:15:04;22.17;;;10.98;;
42978;SDS011;28616;44.746;19.678;2023-03-11T02:17:31;20.02;;;9.70;;
42978;SDS011;28616;44.746;19.678;2023-03-11T02:20:01;19.80;;;9.90;;
42978;SDS011;28616;44.746;19.678;2023-03-11T02:22:48;23.60;;;11.20;;
42978;SDS011;28616;44.746;19.678;2023-03-11T02:28:02;25.45;;;12.32;;
42978;SDS011;28616;44.746;19.678;2023-03-11T02:30:30;19.38;;;10.93;;
42978;SDS011;28616;44.746;19.678;2023-03-11T02:32:57;20.05;;;9.73;;
42978;SDS011;28616;44.746;19.678;2023-03-11T02:35:23;20.85;;;9.70;;
42978;SDS011;28616;44.746;19.678;2023-03-11T02:37:51;19.90;;;8.93;;
42978;SDS011;28616;44.746;19.678;2023-03-11T02:42:46;17.45;;;7.45;;
42978;SDS011;28616;44.746;19.678;2023-03-11T02:45:13;16.52;;;7.57;;
42978;SDS011;28616;44.746;19.678;2023-03-11T02:47:42;16.08;;;6.88;;
42978;SDS011;28616;44.746;19.678;2023-03-11T02:50:08;12.68;;;5.68;;
42978;SDS011;28616;44.746;19.678;2023-03-11T02:52:37;15.27;;;6.10;;
42978;SDS011;28616;44.746;19.678;2023-03-11T02:55:03;17.45;;;8.57;;
42978;SDS011;28616;44.746;19.678;2023-03-11T02:57:30;25.50;;;12.80;;
42978;SDS011;28616;44.746;19.678;2023-03-11T02:59:56;27.70;;;14.50;;
42978;SDS011;28616;44.746;19.678;2023-03-11T03:02:21;31.25;;;14.90;;
42978;SDS011;28616;44.746;19.678;2023-03-11T03:04:47;24.23;;;11.43;;
42978;SDS011;28616;44.746;19.678;2023-03-11T03:07:13;22.65;;;11.38;;
42978;SDS011;28616;44.746;19.678;2023-03-11T03:09:38;29.67;;;14.05;;
42978;SDS011;28616;44.746;19.678;2023-03-11T03:12:04;28.35;;;14.88;;
42978;SDS011;28616;44.746;19.678;2023-03-11T03:14:30;28.60;;;14.35;;
42978;SDS011;28616;44.746;19.678;2023-03-11T03:16:56;23.33;;;10.50;;
42978;SDS011;28616;44.746;19.678;2023-03-11T03:19:22;20.20;;;9.93;;
42978;SDS011;28616;44.746;19.678;2023-03-11T03:21:48;25.45;;;11.00;;
42978;SDS011;28616;44.746;19.678;2023-03-11T03:24:14;22.23;;;10.00;;
42978;SDS011;28616;44.746;19.678;2023-03-11T03:26:40;19.85;;;10.35;;
42978;SDS011;28616;44.746;19.678;2023-03-11T03:29:05;19.65;;;9.23;;
42978;SDS011;28616;44.746;19.678;2023-03-11T03:31:31;17.05;;;9.18;;
42978;SDS011;28616;44.746;19.678;2023-03-11T03:33:57;19.10;;;9.40;;
42978;SDS011;28616;44.746;19.678;2023-03-11T03:36:23;17.02;;;9.43;;
42978;SDS011;28616;44.746;19.678;2023-03-11T03:38:52;18.48;;;10.48;;
42978;SDS011;28616;44.746;19.678;2023-03-11T03:41:19;27.67;;;12.38;;
42978;SDS011;28616;44.746;19.678;2023-03-11T03:43:45;20.38;;;11.10;;
42978;SDS011;28616;44.746;19.678;2023-03-11T03:46:11;20.58;;;11.10;;
42978;SDS011;28616;44.746;19.678;2023-03-11T03:48:36;16.13;;;10.70;;
42978;SDS011;28616;44.746;19.678;2023-03-11T03:51:06;24.05;;;11.30;;
42978;SDS011;28616;44.746;19.678;2023-03-11T03:53:34;27.60;;;13.52;;
42978;SDS011;28616;44.746;19.678;2023-03-11T03:56:04;24.90;;;14.45;;
42978;SDS011;28616;44.746;19.678;2023-03-11T03:58:31;26.73;;;14.80;;
42978;SDS011;28616;44.746;19.678;2023-03-11T04:00:57;28.58;;;12.98;;
42978;SDS011;28616;44.746;19.678;2023-03-11T04:03:23;22.48;;;13.75;;
42978;SDS011;28616;44.746;19.678;2023-03-11T04:05:50;24.58;;;12.60;;
42978;SDS011;28616;44.746;19.678;2023-03-11T04:08:16;24.25;;;13.98;;
42978;SDS011;28616;44.746;19.678;2023-03-11T04:10:41;24.25;;;14.15;;
42978;SDS011;28616;44.746;19.678;2023-03-11T04:13:07;21.70;;;13.15;;
42978;SDS011;28616;44.746;19.678;2023-03-11T04:15:33;25.48;;;14.18;;
42978;SDS011;28616;44.746;19.678;2023-03-11T04:17:58;26.67;;;13.77;;
42978;SDS011;28616;44.746;19.678;2023-03-11T04:20:24;26.25;;;14.13;;
42978;SDS011;28616;44.746;19.678;2023-03-11T04:22:50;32.08;;;16.27;;
42978;SDS011;28616;44.746;19.678;2023-03-11T04:25:16;32.38;;;16.80;;
42978;SDS011;28616;44.746;19.678;2023-03-11T04:27:41;30.92;;;17.05;;
42978;SDS011;28616;44.746;19.678;2023-03-11T04:30:10;40.45;;;23.77;;
42978;SDS011;28616;44.746;19.678;2023-03-11T04:32:36;61.40;;;35.45;;
42978;SDS011;28616;44.746;19.678;2023-03-11T04:35:02;61.72;;;35.53;;
42978;SDS011;28616;44.746;19.678;2023-03-11T04:37:29;55.33;;;26.92;;
42978;SDS011;28616;44.746;19.678;2023-03-11T04:39:55;50.85;;;29.25;;
42978;SDS011;28616;44.746;19.678;2023-03-11T04:42:20;58.00;;;31.92;;
42978;SDS011;28616;44.746;19.678;2023-03-11T04:44:46;65.32;;;36.28;;
42978;SDS011;28616;44.746;19.678;2023-03-11T04:47:12;73.47;;;37.75;;
42978;SDS011;28616;44.746;19.678;2023-03-11T04:49:38;69.65;;;37.78;;
42978;SDS011;28616;44.746;19.678;2023-03-11T04:52:03;68.53;;;36.08;;
42978;SDS011;28616;44.746;19.678;2023-03-11T04:54:29;65.10;;;34.97;;
42978;SDS011;28616;44.746;19.678;2023-03-11T04:56:55;58.97;;;33.25;;
42978;SDS011;28616;44.746;19.678;2023-03-11T04:59:20;72.47;;;35.58;;
42978;SDS011;28616;44.746;19.678;2023-03-11T05:01:46;67.32;;;36.45;;
42978;SDS011;28616;44.746;19.678;2023-03-11T05:04:12;124.68;;;57.83;;
42978;SDS011;28616;44.746;19.678;2023-03-11T05:06:37;89.05;;;45.38;;
42978;SDS011;28616;44.746;19.678;2023-03-11T05:09:03;77.80;;;42.95;;
42978;SDS011;28616;44.746;19.678;2023-03-11T05:11:29;71.10;;;39.80;;
42978;SDS011;28616;44.746;19.678;2023-03-11T05:13:55;73.55;;;39.65;;
42978;SDS011;28616;44.746;19.678;2023-03-11T05:16:21;68.32;;;38.17;;
42978;SDS011;28616;44.746;19.678;2023-03-11T05:18:47;77.55;;;40.50;;
42978;SDS011;28616;44.746;19.678;2023-03-11T05:21:12;86.65;;;46.63;;
42978;SDS011;28616;44.746;19.678;2023-03-11T05:23:38;87.18;;;45.22;;
42978;SDS011;28616;44.746;19.678;2023-03-11T05:26:04;86.88;;;44.75;;
42978;SDS011;28616;44.746;19.678;2023-03-11T05:28:31;99.35;;;48.60;;
42978;SDS011;28616;44.746;19.678;2023-03-11T05:30:57;132.73;;;55.65;;
42978;SDS011;28616;44.746;19.678;2023-03-11T05:33:22;135.57;;;59.95;;
42978;SDS011;28616;44.746;19.678;2023-03-11T05:35:48;107.63;;;48.10;;
42978;SDS011;28616;44.746;19.678;2023-03-11T05:38:16;87.70;;;44.15;;
42978;SDS011;28616;44.746;19.678;2023-03-11T05:40:41;78.68;;;40.72;;
42978;SDS011;28616;44.746;19.678;2023-03-11T05:43:07;68.10;;;32.35;;
42978;SDS011;28616;44.746;19.678;2023-03-11T05:45:33;75.10;;;31.23;;
42978;SDS011;28616;44.746;19.678;2023-03-11T05:47:58;48.65;;;23.25;;
42978;SDS011;28616;44.746;19.678;2023-03-11T05:50:24;46.10;;;19.90;;
42978;SDS011;28616;44.746;19.678;2023-03-11T05:52:50;37.05;;;19.77;;
42978;SDS011;28616;44.746;19.678;2023-03-11T05:55:16;82.80;;;34.47;;
42978;SDS011;28616;44.746;19.678;2023-03-11T05:57:41;58.60;;;28.08;;
42978;SDS011;28616;44.746;19.678;2023-03-11T06:00:07;26.40;;;13.15;;
42978;SDS011;28616;44.746;19.678;2023-03-11T06:02:38;34.90;;;15.75;;
42978;SDS011;28616;44.746;19.678;2023-03-11T06:05:04;72.35;;;30.25;;
42978;SDS011;28616;44.746;19.678;2023-03-11T06:07:32;24.88;;;11.93;;
42978;SDS011;28616;44.746;19.678;2023-03-11T06:09:59;21.35;;;8.70;;
42978;SDS011;28616;44.746;19.678;2023-03-11T06:12:25;17.95;;;10.23;;
42978;SDS011;28616;44.746;19.678;2023-03-11T06:14:52;13.55;;;5.53;;
42978;SDS011;28616;44.746;19.678;2023-03-11T06:17:18;14.43;;;7.68;;
42978;SDS011;28616;44.746;19.678;2023-03-11T06:19:44;31.48;;;13.65;;
42978;SDS011;28616;44.746;19.678;2023-03-11T06:22:09;36.65;;;18.02;;
42978;SDS011;28616;44.746;19.678;2023-03-11T06:24:35;41.60;;;22.15;;
42978;SDS011;28616;44.746;19.678;2023-03-11T06:27:01;27.27;;;14.80;;
42978;SDS011;28616;44.746;19.678;2023-03-11T06:29:27;21.92;;;12.43;;
42978;SDS011;28616;44.746;19.678;2023-03-11T06:31:54;23.27;;;12.10;;
42978;SDS011;28616;44.746;19.678;2023-03-11T06:34:19;47.28;;;18.73;;
42978;SDS011;28616;44.746;19.678;2023-03-11T06:36:46;62.20;;;21.50;;
42978;SDS011;28616;44.746;19.678;2023-03-11T06:39:12;61.78;;;23.13;;
42978;SDS011;28616;44.746;19.678;2023-03-11T06:41:39;36.88;;;21.25;;
42978;SDS011;28616;44.746;19.678;2023-03-11T06:44:05;40.50;;;18.13;;
42978;SDS011;28616;44.746;19.678;2023-03-11T06:46:31;47.15;;;22.10;;
42978;SDS011;28616;44.746;19.678;2023-03-11T06:48:57;39.53;;;20.58;;
42978;SDS011;28616;44.746;19.678;2023-03-11T06:51:23;22.38;;;13.73;;
42978;SDS011;28616;44.746;19.678;2023-03-11T06:53:49;16.35;;;7.82;;
42978;SDS011;28616;44.746;19.678;2023-03-11T06:56:16;19.63;;;9.48;;
42978;SDS011;28616;44.746;19.678;2023-03-11T06:58:43;14.65;;;8.02;;
42978;SDS011;28616;44.746;19.678;2023-03-11T07:01:10;18.13;;;8.35;;
42978;SDS011;28616;44.746;19.678;2023-03-11T07:03:38;13.40;;;5.60;;
42978;SDS011;28616;44.746;19.678;2023-03-11T07:06:04;15.57;;;6.03;;
42978;SDS011;28616;44.746;19.678;2023-03-11T07:08:31;13.82;;;6.70;;
42978;SDS011;28616;44.746;19.678;2023-03-11T07:11:04;14.45;;;6.78;;
42978;SDS011;28616;44.746;19.678;2023-03-11T07:13:32;18.95;;;9.23;;
42978;SDS011;28616;44.746;19.678;2023-03-11T07:15:58;16.65;;;7.72;;
42978;SDS011;28616;44.746;19.678;2023-03-11T07:18:25;20.30;;;7.53;;
42978;SDS011;28616;44.746;19.678;2023-03-11T07:20:52;15.82;;;5.35;;
42978;SDS011;28616;44.746;19.678;2023-03-11T07:23:18;31.88;;;11.48;;
42978;SDS011;28616;44.746;19.678;2023-03-11T07:25:45;20.50;;;7.80;;
42978;SDS011;28616;44.746;19.678;2023-03-11T07:28:11;61.47;;;18.50;;
42978;SDS011;28616;44.746;19.678;2023-03-11T07:30:37;86.90;;;28.42;;
42978;SDS011;28616;44.746;19.678;2023-03-11T07:33:03;15.52;;;7.60;;
42978;SDS011;28616;44.746;19.678;2023-03-11T07:35:29;30.50;;;17.35;;
42978;SDS011;28616;44.746;19.678;2023-03-11T07:37:55;33.22;;;19.80;;
42978;SDS011;28616;44.746;19.678;2023-03-11T07:40:20;38.38;;;20.35;;
42978;SDS011;28616;44.746;19.678;2023-03-11T07:42:46;33.90;;;16.65;;
42978;SDS011;28616;44.746;19.678;2023-03-11T07:45:12;27.92;;;14.23;;
42978;SDS011;28616;44.746;19.678;2023-03-11T07:47:38;29.25;;;14.35;;
42978;SDS011;28616;44.746;19.678;2023-03-11T07:50:03;32.05;;;17.67;;
42978;SDS011;28616;44.746;19.678;2023-03-11T07:52:30;62.53;;;33.38;;
42978;SDS011;28616;44.746;19.678;2023-03-11T07:54:56;85.22;;;44.33;;
42978;SDS011;28616;44.746;19.678;2023-03-11T07:57:22;73.30;;;30.13;;
42978;SDS011;28616;44.746;19.678;2023-03-11T07:59:47;84.47;;;34.60;;
42978;SDS011;28616;44.746;19.678;2023-03-11T08:02:13;135.95;;;59.95;;
42978;SDS011;28616;44.746;19.678;2023-03-11T08:04:39;125.78;;;53.40;;
42978;SDS011;28616;44.746;19.678;2023-03-11T08:07:05;63.20;;;30.38;;
42978;SDS011;28616;44.746;19.678;2023-03-11T08:09:31;44.55;;;21.20;;
42978;SDS011;28616;44.746;19.678;2023-03-11T08:11:59;34.80;;;17.27;;
42978;SDS011;28616;44.746;19.678;2023-03-11T08:14:25;45.13;;;22.75;;
42978;SDS011;28616;44.746;19.678;2023-03-11T08:16:50;51.78;;;28.17;;
42978;SDS011;28616;44.746;19.678;2023-03-11T08:19:16;56.03;;;29.10;;
42978;SDS011;28616;44.746;19.678;2023-03-11T08:21:42;68.47;;;37.55;;
42978;SDS011;28616;44.746;19.678;2023-03-11T08:24:11;67.25;;;32.40;;
42978;SDS011;28616;44.746;19.678;2023-03-11T08:26:38;56.40;;;26.83;;
42978;SDS011;28616;44.746;19.678;2023-03-11T08:29:04;44.33;;;20.33;;
42978;SDS011;28616;44.746;19.678;2023-03-11T08:31:31;205.02;;;71.93;;
42978;SDS011;28616;44.746;19.678;2023-03-11T08:33:59;36.85;;;17.00;;
42978;SDS011;28616;44.746;19.678;2023-03-11T08:36:28;34.00;;;16.40;;
42978;SDS011;28616;44.746;19.678;2023-03-11T08:38:54;38.63;;;19.83;;
42978;SDS011;28616;44.746;19.678;2023-03-11T08:41:20;48.60;;;21.70;;
42978;SDS011;28616;44.746;19.678;2023-03-11T08:43:45;45.65;;;23.17;;
42978;SDS011;28616;44.746;19.678;2023-03-11T08:46:16;19.52;;;10.07;;
42978;SDS011;28616;44.746;19.678;2023-03-11T08:48:48;45.75;;;19.80;;
42978;SDS011;28616;44.746;19.678;2023-03-11T08:51:13;35.58;;;17.27;;
42978;SDS011;28616;44.746;19.678;2023-03-11T08:53:40;28.35;;;12.85;;
42978;SDS011;28616;44.746;19.678;2023-03-11T08:56:05;41.03;;;17.52;;
42978;SDS011;28616;44.746;19.678;2023-03-11T08:58:31;27.58;;;12.73;;
42978;SDS011;28616;44.746;19.678;2023-03-11T09:00:57;22.58;;;10.35;;
42978;SDS011;28616;44.746;19.678;2023-03-11T09:03:25;14.13;;;6.60;;
42978;SDS011;28616;44.746;19.678;2023-03-11T09:05:57;14.57;;;6.85;;
42978;SDS011;28616;44.746;19.678;2023-03-11T09:08:24;22.27;;;8.50;;
42978;SDS011;28616;44.746;19.678;2023-03-11T09:10:50;28.92;;;10.52;;
42978;SDS011;28616;44.746;19.678;2023-03-11T09:13:16;19.23;;;8.57;;
42978;SDS011;28616;44.746;19.678;2023-03-11T09:15:42;19.42;;;7.95;;
42978;SDS011;28616;44.746;19.678;2023-03-11T09:18:10;20.77;;;9.38;;
42978;SDS011;28616;44.746;19.678;2023-03-11T09:20:37;9.70;;;8.23;;
42978;SDS011;28616;44.746;19.678;2023-03-11T09:23:03;21.52;;;8.90;;
42978;SDS011;28616;44.746;19.678;2023-03-11T09:25:29;18.50;;;8.88;;
42978;SDS011;28616;44.746;19.678;2023-03-11T09:27:55;15.07;;;7.00;;
42978;SDS011;28616;44.746;19.678;2023-03-11T09:30:21;18.40;;;9.18;;
42978;SDS011;28616;44.746;19.678;2023-03-11T09:32:46;24.83;;;11.05;;
42978;SDS011;28616;44.746;19.678;2023-03-11T09:35:12;31.98;;;11.95;;
42978;SDS011;28616;44.746;19.678;2023-03-11T09:37:38;22.00;;;8.57;;
42978;SDS011;28616;44.746;19.678;2023-03-11T09:40:04;26.02;;;7.72;;
42978;SDS011;28616;44.746;19.678;2023-03-11T09:45:22;72.53;;;24.23;;
42978;SDS011;28616;44.746;19.678;2023-03-11T09:50:22;31.77;;;11.27;;
42978;SDS011;28616;44.746;19.678;2023-03-11T09:53:17;45.53;;;14.68;;
42978;SDS011;28616;44.746;19.678;2023-03-11T09:55:47;60.90;;;22.60;;
42978;SDS011;28616;44.746;19.678;2023-03-11T09:58:59;25.33;;;11.50;;
42978;SDS011;28616;44.746;19.678;2023-03-11T10:03:45;33.20;;;11.50;;
42978;SDS011;28616;44.746;19.678;2023-03-11T10:06:20;61.83;;;20.48;;
42978;SDS011;28616;44.746;19.678;2023-03-11T10:08:47;63.60;;;20.02;;
42978;SDS011;28616;44.746;19.678;2023-03-11T10:17:16;152.55;;;45.38;;
42978;SDS011;28616;44.746;19.678;2023-03-11T10:25:27;148.48;;;49.72;;
42978;SDS011;28616;44.746;19.678;2023-03-11T10:28:04;175.45;;;61.00;;
42978;SDS011;28616;44.746;19.678;2023-03-11T10:30:42;152.10;;;56.53;;
42978;SDS011;28616;44.746;19.678;2023-03-11T10:33:23;38.05;;;15.63;;
42978;SDS011;28616;44.746;19.678;2023-03-11T10:35:50;42.75;;;14.88;;
42978;SDS011;28616;44.746;19.678;2023-03-11T10:40:50;28.08;;;9.93;;
42978;SDS011;28616;44.746;19.678;2023-03-11T10:43:32;31.75;;;13.73;;
42978;SDS011;28616;44.746;19.678;2023-03-11T10:46:06;25.10;;;9.95;;
42978;SDS011;28616;44.746;19.678;2023-03-11T10:48:42;8.48;;;3.50;;
42978;SDS011;28616;44.746;19.678;2023-03-11T10:51:21;50.47;;;21.83;;
42978;SDS011;28616;44.746;19.678;2023-03-11T10:53:50;78.70;;;30.73;;
42978;SDS011;28616;44.746;19.678;2023-03-11T10:56:36;38.83;;;16.75;;
42978;SDS011;28616;44.746;19.678;2023-03-11T10:59:05;38.60;;;16.67;;
42978;SDS011;28616;44.746;19.678;2023-03-11T11:01:58;28.88;;;13.45;;
42978;SDS011;28616;44.746;19.678;2023-03-11T11:04:44;19.90;;;8.43;;
42978;SDS011;28616;44.746;19.678;2023-03-11T11:17:47;46.28;;;19.95;;
42978;SDS011;28616;44.746;19.678;2023-03-11T11:20:17;32.42;;;15.18;;
42978;SDS011;28616;44.746;19.678;2023-03-11T11:22:48;25.83;;;12.32;;
42978;SDS011;28616;44.746;19.678;2023-03-11T11:25:29;31.10;;;15.35;;
42978;SDS011;28616;44.746;19.678;2023-03-11T11:28:01;49.97;;;22.50;;
42978;SDS011;28616;44.746;19.678;2023-03-11T11:30:29;37.58;;;19.45;;
42978;SDS011;28616;44.746;19.678;2023-03-11T11:32:55;15.30;;;7.68;;
42978;SDS011;28616;44.746;19.678;2023-03-11T11:35:51;17.75;;;9.85;;
42978;SDS011;28616;44.746;19.678;2023-03-11T11:38:28;12.13;;;6.43;;
42978;SDS011;28616;44.746;19.678;2023-03-11T11:40:56;29.30;;;13.18;;
42978;SDS011;28616;44.746;19.678;2023-03-11T11:45:55;95.13;;;44.95;;
42978;SDS011;28616;44.746;19.678;2023-03-11T11:48:32;46.13;;;22.38;;
42978;SDS011;28616;44.746;19.678;2023-03-11T11:51:20;33.85;;;16.20;;
42978;SDS011;28616;44.746;19.678;2023-03-11T11:56:25;46.80;;;27.00;;
42978;SDS011;28616;44.746;19.678;2023-03-11T11:58:50;25.98;;;14.82;;
42978;SDS011;28616;44.746;19.678;2023-03-11T12:07:09;24.60;;;9.88;;
42978;SDS011;28616;44.746;19.678;2023-03-11T12:12:43;54.00;;;19.13;;
42978;SDS011;28616;44.746;19.678;2023-03-11T12:17:48;25.90;;;12.63;;
42978;SDS011;28616;44.746;19.678;2023-03-11T12:23:20;58.17;;;21.42;;
42978;SDS011;28616;44.746;19.678;2023-03-11T12:26:11;68.45;;;27.40;;
42978;SDS011;28616;44.746;19.678;2023-03-11T12:31:14;51.33;;;18.95;;
42978;SDS011;28616;44.746;19.678;2023-03-11T12:33:41;17.65;;;7.75;;
42978;SDS011;28616;44.746;19.678;2023-03-11T12:38:53;28.83;;;10.30;;
42978;SDS011;28616;44.746;19.678;2023-03-11T12:44:34;28.63;;;15.30;;
42978;SDS011;28616;44.746;19.678;2023-03-11T12:49:41;32.25;;;15.32;;
42978;SDS011;28616;44.746;19.678;2023-03-11T13:07:47;27.15;;;11.85;;
42978;SDS011;28616;44.746;19.678;2023-03-11T13:15:53;46.10;;;19.85;;
42978;SDS011;28616;44.746;19.678;2023-03-11T13:23:25;25.17;;;10.07;;
42978;SDS011;28616;44.746;19.678;2023-03-11T13:38:10;16.20;;;7.55;;
42978;SDS011;28616;44.746;19.678;2023-03-11T13:40:56;17.23;;;7.28;;
42978;SDS011;28616;44.746;19.678;2023-03-11T13:43:23;15.18;;;6.68;;
42978;SDS011;28616;44.746;19.678;2023-03-11T13:45:51;28.55;;;12.05;;
42978;SDS011;28616;44.746;19.678;2023-03-11T13:50:55;28.63;;;13.55;;
42978;SDS011;28616;44.746;19.678;2023-03-11T13:53:39;18.17;;;6.93;;
42978;SDS011;28616;44.746;19.678;2023-03-11T13:56:17;34.08;;;11.65;;
42978;SDS011;28616;44.746;19.678;2023-03-11T14:02:36;19.58;;;8.27;;
42978;SDS011;28616;44.746;19.678;2023-03-11T14:04:47;23.00;;;9.63;;
42978;SDS011;28616;44.746;19.678;2023-03-11T14:07:21;29.88;;;12.73;;
42978;SDS011;28616;44.746;19.678;2023-03-11T14:12:43;17.17;;;7.63;;
42978;SDS011;28616;44.746;19.678;2023-03-11T14:15:14;22.33;;;9.57;;
42978;SDS011;28616;44.746;19.678;2023-03-11T14:17:46;16.85;;;7.07;;
42978;SDS011;28616;44.746;19.678;2023-03-11T14:20:15;29.02;;;11.63;;
42978;SDS011;28616;44.746;19.678;2023-03-11T14:22:48;33.13;;;13.38;;
42978;SDS011;28616;44.746;19.678;2023-03-11T14:25:28;22.48;;;10.32;;
42978;SDS011;28616;44.746;19.678;2023-03-11T14:28:01;20.42;;;9.70;;
42978;SDS011;28616;44.746;19.678;2023-03-11T14:30:29;23.77;;;8.85;;
42978;SDS011;28616;44.746;19.678;2023-03-11T14:35:25;20.45;;;9.25;;
42978;SDS011;28616;44.746;19.678;2023-03-11T14:37:51;19.60;;;7.72;;
42978;SDS011;28616;44.746;19.678;2023-03-11T14:43:03;25.67;;;11.77;;
42978;SDS011;28616;44.746;19.678;2023-03-11T14:45:31;21.02;;;8.70;;
42978;SDS011;28616;44.746;19.678;2023-03-11T14:48:21;23.27;;;9.30;;
42978;SDS011;28616;44.746;19.678;2023-03-11T14:50:52;84.00;;;36.30;;
42978;SDS011;28616;44.746;19.678;2023-03-11T14:56:02;40.78;;;17.27;;
42978;SDS011;28616;44.746;19.678;2023-03-11T14:58:45;64.78;;;31.60;;
42978;SDS011;28616;44.746;19.678;2023-03-11T15:01:33;25.55;;;14.52;;
42978;SDS011;28616;44.746;19.678;2023-03-11T15:04:21;23.15;;;12.40;;
42978;SDS011;28616;44.746;19.678;2023-03-11T15:06:51;16.17;;;8.48;;
42978;SDS011;28616;44.746;19.678;2023-03-11T15:09:18;17.70;;;9.45;;
42978;SDS011;28616;44.746;19.678;2023-03-11T15:11:48;20.13;;;8.93;;
42978;SDS011;28616;44.746;19.678;2023-03-11T15:14:29;27.60;;;13.32;;
42978;SDS011;28616;44.746;19.678;2023-03-11T15:19:40;55.30;;;25.83;;
42978;SDS011;28616;44.746;19.678;2023-03-11T15:25:25;41.55;;;20.40;;
42978;SDS011;28616;44.746;19.678;2023-03-11T15:27:55;42.13;;;21.13;;
42978;SDS011;28616;44.746;19.678;2023-03-11T15:32:57;54.92;;;21.10;;
42978;SDS011;28616;44.746;19.678;2023-03-11T15:35:26;62.05;;;25.27;;
42978;SDS011;28616;44.746;19.678;2023-03-11T15:40:37;37.65;;;15.60;;
42978;SDS011;28616;44.746;19.678;2023-03-11T15:45:41;113.07;;;40.90;;
42978;SDS011;28616;44.746;19.678;2023-03-11T15:48:11;226.13;;;70.15;;
42978;SDS011;28616;44.746;19.678;2023-03-11T15:50:47;162.48;;;54.47;;
42978;SDS011;28616;44.746;19.678;2023-03-11T15:53:18;192.80;;;63.85;;
42978;SDS011;28616;44.746;19.678;2023-03-11T15:55:45;215.20;;;80.47;;
42978;SDS011;28616;44.746;19.678;2023-03-11T15:58:13;77.30;;;35.70;;
42978;SDS011;28616;44.746;19.678;2023-03-11T16:00:42;123.13;;;48.95;;
42978;SDS011;28616;44.746;19.678;2023-03-11T16:03:11;97.90;;;43.83;;
42978;SDS011;28616;44.746;19.678;2023-03-11T16:05:37;102.60;;;44.00;;
42978;SDS011;28616;44.746;19.678;2023-03-11T16:08:02;95.18;;;41.47;;
42978;SDS011;28616;44.746;19.678;2023-03-11T16:10:28;104.80;;;44.63;;
42978;SDS011;28616;44.746;19.678;2023-03-11T16:12:54;65.50;;;28.55;;
42978;SDS011;28616;44.746;19.678;2023-03-11T16:15:24;94.88;;;34.50;;
42978;SDS011;28616;44.746;19.678;2023-03-11T16:17:53;167.18;;;54.92;;
42978;SDS011;28616;44.746;19.678;2023-03-11T16:20:23;177.65;;;66.95;;
42978;SDS011;28616;44.746;19.678;2023-03-11T16:22:52;117.68;;;49.10;;
42978;SDS011;28616;44.746;19.678;2023-03-11T16:25:20;82.97;;;31.23;;
42978;SDS011;28616;44.746;19.678;2023-03-11T16:27:57;50.30;;;20.92;;
42978;SDS011;28616;44.746;19.678;2023-03-11T16:30:24;65.75;;;25.52;;
42978;SDS011;28616;44.746;19.678;2023-03-11T16:32:52;53.88;;;25.17;;
42978;SDS011;28616;44.746;19.678;2023-03-11T16:35:17;38.75;;;17.83;;
42978;SDS011;28616;44.746;19.678;2023-03-11T16:37:43;37.90;;;14.88;;